Terminal Aerodrome Forecast
Issued by NWS

Current Version | Previous Version | Graphics & Text | Print | Product List | Glossary On
Versions: 1 2 3 4 5 6 7 8 9 10 11 12 13 14 15 16 17 18 19 20 21 22 23 24 25 26 27 28 29 30 31 32 33 34 35 36 37 38 39 40 41 42 43 44 45 46 47
000
FTUS41 KRNK 021232 AAA
TAFLWB
TAF AMD
KLWB 021232Z 0213/0312 19003KT 3SM -RA SCT035 BKN040 OVC070
      TEMPO 0213/0216 1SM -SHRA BR SCT007 OVC013
     FM022000 VRB04KT 4SM -SHRA BR VCTS SCT013 BKN025 OVC035CB
      TEMPO 0220/0224 1SM TSRA BKN007 OVC013CB
     FM030400 00000KT 2SM -SHRA BR BKN007 OVC013
      TEMPO 0304/0308 3SM -TSRA OVC007CB
     FM030800 VRB03KT 1SM -SHRA BR OVC013
      TEMPO 0308/0312 1/4SM -SHRA FG VV001
      AMD NOT SKED=

USA.gov is the U.S. government's official web portal to all federal, state and local government web resources and services.